Time;durP1;ratioP1;P1;durP2;ratioP2;P2;SDS_P1;SDS_P2;PMS_P1;PMS_P2;Temp;Humidity;BMP_temperature;BMP_pressure;BME280_temperature;BME280_humidity;BME280_pressure;Samples;Min_cycle;Max_cycle;Signal;HPM_P1;HPM_P2
2022/04/28 00:01:56;;;;;;;15.82;7.90;;;11.10;84.50;;;;;;5085966;28;20417;-70
2022/04/28 00:04:22;;;;;;;16.13;7.50;;;11.20;84.60;;;;;;5087274;28;21379;-71
2022/04/28 00:06:48;;;;;;;13.97;6.90;;;11.20;84.40;;;;;;5083429;28;20505;-70
2022/04/28 00:09:14;;;;;;;17.98;8.00;;;11.20;84.20;;;;;;5087308;28;20390;-69
2022/04/28 00:11:39;;;;;;;17.65;8.45;;;11.20;84.10;;;;;;5082758;28;20426;-70
2022/04/28 00:14:07;;;;;;;18.57;8.23;;;11.10;84.10;;;;;;5087331;28;20957;-70
2022/04/28 00:16:35;;;;;;;16.13;7.80;;;11.10;84.20;;;;;;5083404;28;20413;-70
2022/04/28 00:19:03;;;;;;;17.13;8.15;;;11.10;83.90;;;;;;5082715;28;20740;-70
2022/04/28 00:21:30;;;;;;;17.10;7.45;;;11.10;83.90;;;;;;5084852;28;20425;-70
2022/04/28 00:23:55;;;;;;;18.43;7.60;;;11.00;83.90;;;;;;5085962;28;20409;-67
2022/04/28 00:26:21;;;;;;;15.55;7.57;;;11.00;84.10;;;;;;5084384;28;20419;-68
2022/04/28 00:28:47;;;;;;;17.40;8.27;;;11.00;84.30;;;;;;5084833;28;20406;-69
2022/04/28 00:31:13;;;;;;;19.40;7.82;;;11.00;84.20;;;;;;5087443;28;20417;-69
2022/04/28 00:33:41;;;;;;;16.48;7.55;;;11.00;84.10;;;;;;5090552;28;20401;-69
2022/04/28 00:36:08;;;;;;;13.07;6.90;;;10.90;84.60;;;;;;5089988;28;20426;-68
2022/04/28 00:38:34;;;;;;;14.50;7.35;;;10.90;84.50;;;;;;5071766;28;20408;-68
2022/04/28 00:40:59;;;;;;;14.05;6.80;;;10.90;84.70;;;;;;5089656;28;20393;-68
2022/04/28 00:43:29;;;;;;;19.03;7.30;;;10.90;84.70;;;;;;5088489;28;20945;-69
2022/04/28 00:45:55;;;;;;;15.95;7.40;;;10.90;84.50;;;;;;5087676;28;20813;-68
2022/04/28 00:51:07;;;;;;;15.35;7.10;;;10.80;84.30;;;;;;5089322;28;20543;-70
2022/04/28 00:53:43;;;;;;;17.58;7.50;;;10.80;84.50;;;;;;5088383;28;20432;-69
2022/04/28 00:56:09;;;;;;;14.30;7.38;;;10.70;84.70;;;;;;5070469;28;20467;-68
2022/04/28 00:58:37;;;;;;;15.15;7.28;;;10.70;84.60;;;;;;5088431;28;20410;-69
2022/04/28 01:01:04;;;;;;;15.77;7.30;;;10.70;84.60;;;;;;5087217;28;20909;-68
2022/04/28 01:03:30;;;;;;;18.00;7.57;;;10.70;84.40;;;;;;5088102;28;20413;-69
2022/04/28 01:05:57;;;;;;;16.50;7.43;;;10.60;84.70;;;;;;5089018;28;20426;-70
2022/04/28 01:08:23;;;;;;;16.33;7.00;;;10.60;85.00;;;;;;5088085;28;20421;-69
2022/04/28 01:10:51;;;;;;;15.57;7.82;;;10.60;85.20;;;;;;5085908;28;20418;-70
2022/04/28 01:13:18;;;;;;;16.27;7.20;;;10.50;85.30;;;;;;5087586;28;20402;-70
2022/04/28 01:15:50;;;;;;;18.25;7.78;;;10.50;85.60;;;;;;5088024;28;20438;-71
2022/04/28 01:18:17;;;;;;;17.52;7.97;;;10.50;85.70;;;;;;5087560;28;20894;-69
2022/04/28 01:20:43;;;;;;;15.50;7.75;;;10.50;85.80;;;;;;5087463;28;20409;-70
2022/04/28 01:23:11;;;;;;;15.77;8.02;;;10.50;85.90;;;;;;5086595;28;20452;-70
2022/04/28 01:25:38;;;;;;;15.68;7.72;;;10.50;86.70;;;;;;5087256;28;20402;-72
2022/04/28 01:28:04;;;;;;;16.85;8.07;;;10.50;86.10;;;;;;5069920;28;20835;-73
2022/04/28 01:30:30;;;;;;;16.05;7.80;;;10.50;86.00;;;;;;5089543;28;20488;-71
2022/04/28 01:32:58;;;;;;;18.35;7.70;;;10.50;86.20;;;;;;5087385;28;20410;-72
2022/04/28 01:35:24;;;;;;;14.75;7.70;;;10.40;86.20;;;;;;5086483;28;20413;-72
2022/04/28 01:37:52;;;;;;;16.08;7.82;;;10.40;86.20;;;;;;5086478;28;20410;-70
2022/04/28 01:40:18;;;;;;;16.55;8.00;;;10.40;86.20;;;;;;5085215;28;20417;-70
2022/04/28 01:42:45;;;;;;;18.90;8.57;;;10.40;86.20;;;;;;5081591;28;20474;-70
2022/04/28 01:45:12;;;;;;;15.65;7.70;;;10.40;86.40;;;;;;5086204;28;20410;-68
2022/04/28 01:47:55;;;;;;;19.83;8.20;;;10.40;86.50;;;;;;5084884;28;20941;-71
2022/04/28 01:50:40;;;;;;;15.52;7.78;;;10.40;86.70;;;;;;5089198;28;20483;-71
2022/04/28 01:56:05;;;;;;;15.57;7.68;;;10.40;86.80;;;;;;5087389;28;20444;-70
2022/04/28 01:58:49;;;;;;;17.25;8.25;;;10.30;86.60;;;;;;5086901;28;20491;-70
2022/04/28 02:01:40;;;;;;;16.35;7.72;;;10.30;86.70;;;;;;5084016;28;20421;-71
2022/04/28 02:04:06;;;;;;;15.70;7.70;;;10.30;86.80;;;;;;5086307;28;20410;-70
2022/04/28 02:06:32;;;;;;;13.52;7.63;;;10.30;86.80;;;;;;5088625;28;20413;-71
2022/04/28 02:08:59;;;;;;;14.77;7.90;;;10.40;86.80;;;;;;5087250;28;20405;-71
2022/04/28 02:11:25;;;;;;;15.90;7.35;;;10.30;86.80;;;;;;5088196;28;20496;-71
2022/04/28 02:14:09;;;;;;;18.20;8.20;;;10.40;86.80;;;;;;5087472;28;20462;-71
2022/04/28 02:17:25;;;;;;;17.33;8.18;;;10.40;86.80;;;;;;5081230;28;20394;-70
2022/04/28 02:19:51;;;;;;;13.83;8.20;;;10.40;86.90;;;;;;5086434;28;20398;-70
2022/04/28 02:22:17;;;;;;;14.82;7.75;;;10.40;87.00;;;;;;5076981;28;20390;-69
2022/04/28 02:24:44;;;;;;;14.85;7.68;;;10.40;86.70;;;;;;5086274;28;20421;-69
2022/04/28 02:27:10;;;;;;;12.77;7.45;;;10.40;86.80;;;;;;5084997;28;20394;-70
2022/04/28 02:29:36;;;;;;;14.30;7.25;;;10.40;86.90;;;;;;5085926;28;20789;-70
2022/04/28 02:32:03;;;;;;;14.48;7.40;;;10.40;87.00;;;;;;5085471;28;20488;-68
2022/04/28 02:34:29;;;;;;;13.85;7.30;;;10.40;87.20;;;;;;5085116;28;20502;-68
2022/04/28 02:36:57;;;;;;;14.05;7.85;;;10.40;87.30;;;;;;5084105;28;20402;-69
2022/04/28 02:39:24;;;;;;;14.70;8.60;;;10.30;87.20;;;;;;5084690;28;20402;-69
2022/04/28 02:41:53;;;;;;;17.20;8.70;;;10.30;87.40;;;;;;5083443;28;20820;-69
2022/04/28 02:44:19;;;;;;;14.75;8.63;;;10.30;87.50;;;;;;5085714;28;20419;-67
2022/04/28 02:46:48;;;;;;;17.90;9.20;;;10.30;87.60;;;;;;5085653;28;20417;-69
2022/04/28 02:49:17;;;;;;;15.97;9.40;;;10.30;87.60;;;;;;5086518;28;21099;-68
2022/04/28 02:51:43;;;;;;;17.67;9.40;;;10.20;87.90;;;;;;5067539;28;20505;-68
2022/04/28 02:54:10;;;;;;;15.80;9.43;;;10.20;88.40;;;;;;5085244;28;20394;-69
2022/04/28 02:56:43;;;;;;;16.85;9.55;;;10.10;88.20;;;;;;5085338;28;20901;-68
2022/04/28 02:59:09;;;;;;;16.48;9.20;;;10.10;88.80;;;;;;5083834;28;20447;-69
2022/04/28 03:01:35;;;;;;;17.55;9.23;;;10.10;88.70;;;;;;5085721;28;21230;-69
2022/04/28 03:04:02;;;;;;;15.37;9.30;;;10.10;88.40;;;;;;5084897;28;20438;-68
2022/04/28 03:11:57;;;;;;;18.55;9.65;;;10.20;88.20;;;;;;5084137;28;20419;-68
2022/04/28 03:14:23;;;;;;;17.45;9.50;;;10.20;88.00;;;;;;5086042;28;20393;-68
2022/04/28 03:16:49;;;;;;;17.40;10.00;;;10.20;88.00;;;;;;5085666;28;20433;-70
2022/04/28 03:19:15;;;;;;;18.85;10.15;;;10.20;88.10;;;;;;5084037;28;20416;-71
2022/04/28 03:21:43;;;;;;;14.48;9.27;;;10.20;88.10;;;;;;5085649;28;20874;-70
2022/04/28 03:24:10;;;;;;;16.58;9.70;;;10.20;88.10;;;;;;5082148;28;20406;-71
2022/04/28 03:26:40;;;;;;;17.23;9.70;;;10.20;88.00;;;;;;5068608;28;20457;-70
2022/04/28 03:29:10;;;;;;;20.00;9.90;;;10.20;87.80;;;;;;5067898;28;20513;-70
2022/04/28 03:31:36;;;;;;;14.47;9.90;;;10.10;88.00;;;;;;5084309;28;20492;-69
2022/04/28 03:34:23;;;;;;;17.13;10.50;;;10.10;88.20;;;;;;5083314;28;20412;-68
2022/04/28 03:36:50;;;;;;;17.60;10.45;;;10.10;88.30;;;;;;5084855;28;20410;-70
2022/04/28 03:39:16;;;;;;;18.63;10.45;;;10.10;88.40;;;;;;5083268;28;20768;-67
2022/04/28 03:41:43;;;;;;;19.77;10.90;;;10.10;88.50;;;;;;5083253;28;20502;-70
2022/04/28 03:44:09;;;;;;;19.50;10.77;;;10.10;88.50;;;;;;5085518;28;20524;-68
2022/04/28 03:46:35;;;;;;;17.05;10.77;;;10.10;88.50;;;;;;5084770;28;20409;-68
2022/04/28 03:49:02;;;;;;;17.50;10.70;;;10.10;88.70;;;;;;5086056;28;20477;-70
2022/04/28 03:51:28;;;;;;;21.70;10.88;;;10.00;88.70;;;;;;5080699;28;20410;-69
2022/04/28 03:53:59;;;;;;;17.33;11.25;;;10.00;88.90;;;;;;5084849;28;20512;-71
2022/04/28 03:56:32;;;;;;;16.50;10.80;;;10.10;89.10;;;;;;5084233;28;20893;-69
2022/04/28 03:59:03;;;;;;;22.25;11.20;;;10.00;88.90;;;;;;5085417;28;20455;-71
2022/04/28 04:01:40;;;;;;;18.67;11.07;;;10.00;89.00;;;;;;5082917;28;20425;-71
2022/04/28 04:04:10;;;;;;;18.90;10.63;;;10.00;89.20;;;;;;5105253;28;20405;-74
2022/04/28 04:06:41;;;;;;;17.65;10.70;;;10.00;89.20;;;;;;5089102;28;20759;-74
2022/04/28 04:09:35;;;;;;;18.95;10.90;;;10.00;89.20;;;;;;5089622;28;20420;-73
2022/04/28 04:12:02;;;;;;;21.90;11.43;;;10.10;89.20;;;;;;5087303;28;20504;-72
2022/04/28 04:14:39;;;;;;;19.35;11.40;;;10.10;89.10;;;;;;5074677;28;20406;-71
2022/04/28 04:17:06;;;;;;;19.95;11.10;;;10.10;89.10;;;;;;5088081;28;20484;-73
2022/04/28 04:19:34;;;;;;;18.33;11.60;;;10.10;89.10;;;;;;5090232;28;20398;-72
2022/04/28 04:22:00;;;;;;;22.88;11.63;;;10.10;89.10;;;;;;5087350;28;20622;-71
2022/04/28 04:24:27;;;;;;;18.87;11.40;;;10.10;89.30;;;;;;5086559;28;20421;-68
2022/04/28 04:26:54;;;;;;;19.70;11.05;;;10.10;89.60;;;;;;5088470;28;21083;-69
2022/04/28 04:29:39;;;;;;;19.83;10.85;;;10.10;89.60;;;;;;5087705;28;20436;-71
2022/04/28 04:32:17;;;;;;;21.35;11.25;;;10.20;89.70;;;;;;5084823;28;20422;-70
2022/04/28 04:34:50;;;;;;;20.95;11.07;;;10.20;89.60;;;;;;5090687;28;20477;-69
2022/04/28 04:37:21;;;;;;;21.83;10.40;;;10.20;89.50;;;;;;5086847;28;20402;-69
2022/04/28 04:39:48;;;;;;;21.30;11.25;;;10.20;89.60;;;;;;5072334;28;20381;-71
2022/04/28 04:42:15;;;;;;;21.83;10.52;;;10.20;89.70;;;;;;5087009;28;20932;-70
2022/04/28 04:44:41;;;;;;;24.30;11.03;;;10.20;90.20;;;;;;5089908;28;20874;-69
2022/04/28 04:47:09;;;;;;;18.77;10.60;;;10.20;90.00;;;;;;5089193;28;20410;-69
2022/04/28 04:49:53;;;;;;;21.52;10.57;;;10.20;90.00;;;;;;5088516;28;20401;-68
2022/04/28 04:52:29;;;;;;;19.65;10.65;;;10.20;90.20;;;;;;5088630;28;20424;-70
2022/04/28 04:54:59;;;;;;;17.30;10.00;;;10.30;90.10;;;;;;5087898;28;20402;-69
2022/04/28 04:57:26;;;;;;;21.00;10.50;;;10.40;90.10;;;;;;5087484;28;20390;-70
2022/04/28 04:59:52;;;;;;;20.37;10.87;;;10.40;90.10;;;;;;5085705;28;20403;-67
2022/04/28 05:02:19;;;;;;;20.27;10.40;;;10.40;90.00;;;;;;5086026;28;20551;-68
2022/04/28 05:05:03;;;;;;;22.00;11.07;;;10.50;90.10;;;;;;5088964;28;20393;-67
2022/04/28 05:07:47;;;;;;;22.45;11.23;;;10.50;90.30;;;;;;5086523;28;20926;-68
2022/04/28 05:10:13;;;;;;;20.08;10.63;;;10.60;90.30;;;;;;5086795;28;20405;-68
2022/04/28 05:12:39;;;;;;;21.33;11.00;;;10.60;90.20;;;;;;5088141;28;20406;-68
2022/04/28 05:15:12;;;;;;;19.37;11.07;;;10.70;90.20;;;;;;5087717;28;20469;-67
2022/04/28 05:17:50;;;;;;;21.15;10.77;;;10.70;90.00;;;;;;5086124;28;20900;-68
2022/04/28 05:20:28;;;;;;;23.10;10.93;;;10.80;89.90;;;;;;5083032;28;20475;-67
2022/04/28 05:23:12;;;;;;;20.25;11.05;;;10.80;90.00;;;;;;5083136;28;20463;-67
2022/04/28 05:25:56;;;;;;;23.05;11.00;;;10.90;89.50;;;;;;5084180;28;20506;-68
2022/04/28 05:28:40;;;;;;;23.73;11.32;;;10.90;90.00;;;;;;5082388;28;20433;-69
2022/04/28 05:31:25;;;;;;;20.40;10.95;;;11.00;89.20;;;;;;5085818;28;20475;-68
2022/04/28 05:34:16;;;;;;;22.35;11.45;;;11.00;89.10;;;;;;5083742;28;20402;-68
2022/04/28 05:36:45;;;;;;;23.85;11.10;;;11.00;88.80;;;;;;5087179;28;20402;-67
2022/04/28 05:39:11;;;;;;;22.83;10.73;;;11.10;88.40;;;;;;5089669;28;20405;-67
2022/04/28 05:41:37;;;;;;;23.67;10.33;;;11.20;88.50;;;;;;5085726;28;20467;-68
2022/04/28 05:46:50;;;;;;;21.50;10.27;;;11.20;87.80;;;;;;5087529;28;20754;-67
2022/04/28 05:49:16;;;;;;;25.25;10.73;;;11.30;88.70;;;;;;5071975;28;20394;-67
2022/04/28 05:51:42;;;;;;;21.58;10.50;;;11.30;87.50;;;;;;5082663;28;20495;-67
2022/04/28 05:54:10;;;;;;;24.60;10.45;;;11.40;87.60;;;;;;5088258;28;20414;-67
2022/04/28 05:56:36;;;;;;;24.80;10.60;;;11.50;87.30;;;;;;5084447;28;20402;-66
2022/04/28 05:59:07;;;;;;;24.63;10.32;;;11.50;87.90;;;;;;5077875;28;20409;-67
2022/04/28 06:01:42;;;;;;;23.88;10.80;;;11.60;86.90;;;;;;5082825;28;20422;-68
2022/04/28 06:04:10;;;;;;;21.52;10.77;;;11.70;86.40;;;;;;5068218;28;20418;-66
2022/04/28 06:06:37;;;;;;;21.23;9.70;;;11.70;86.70;;;;;;5084619;28;20421;-68
2022/04/28 06:09:10;;;;;;;22.73;10.20;;;11.80;86.00;;;;;;5085893;28;20971;-68
2022/04/28 06:11:36;;;;;;;21.97;10.20;;;11.90;86.50;;;;;;5086496;28;20406;-67
2022/04/28 06:14:03;;;;;;;23.30;9.65;;;11.90;85.60;;;;;;5087249;28;20467;-67
2022/04/28 06:16:57;;;;;;;21.88;9.20;;;12.00;85.00;;;;;;5085120;28;20914;-68
2022/04/28 06:19:25;;;;;;;22.73;9.30;;;12.00;84.40;;;;;;5082539;28;20408;-67
2022/04/28 06:22:04;;;;;;;25.42;9.63;;;12.00;84.30;;;;;;5084901;28;20413;-67
2022/04/28 06:24:34;;;;;;;;;;;12.20;84.30;;;;;;5086936;28;20885;-68
2022/04/28 06:27:00;;;;;;;;;;;12.20;84.10;;;;;;5082633;28;19922;-67
2022/04/28 06:29:27;;;;;;;;;;;12.30;82.90;;;;;;5086576;28;20321;-67
2022/04/28 06:31:56;;;;;;;;;;;12.30;82.80;;;;;;5085433;28;20386;-68
2022/04/28 06:34:42;;;;;;;;;;;12.40;82.70;;;;;;5081176;28;19912;-67
2022/04/28 06:37:09;;;;;;;;;;;12.50;82.10;;;;;;5083523;28;19908;-67
2022/04/28 06:39:36;;;;;;;;;;;12.50;82.10;;;;;;5087824;28;19915;-67
2022/04/28 06:42:02;;;;;;;;;;;12.60;82.30;;;;;;5086202;28;20463;-68
2022/04/28 06:44:47;;;;;;;;;;;12.70;81.80;;;;;;5082517;28;19912;-69
2022/04/28 06:47:40;;;;;;;;;;;12.70;81.00;;;;;;5077825;28;19930;-67
2022/04/28 06:50:24;;;;;;;;;;;12.80;80.60;;;;;;5084266;28;20394;-68
2022/04/28 06:53:19;;;;;;;;;;;12.80;80.40;;;;;;5086159;28;19915;-68
2022/04/28 06:55:49;;;;;;;;;;;12.90;80.20;;;;;;5084675;28;19908;-67
2022/04/28 06:58:15;;;;;;;;;;;12.90;80.30;;;;;;5102436;28;20284;-68
2022/04/28 07:00:43;;;;;;;;;;;13.10;79.70;;;;;;5088287;28;19916;-67
2022/04/28 07:03:10;;;;;;;;;;;13.10;79.40;;;;;;5086700;28;19915;-68
2022/04/28 07:05:38;;;;;;;;;;;13.20;78.30;;;;;;5086911;28;20705;-68
2022/04/28 07:08:04;;;;;;;;;;;13.30;77.40;;;;;;5086713;28;19931;-68
2022/04/28 07:10:33;;;;;;;16.40;8.18;;;13.30;77.00;;;;;;5085413;28;20419;-67
2022/04/28 07:12:59;;;;;;;22.58;9.73;;;13.30;76.90;;;;;;5085312;28;20848;-68
2022/04/28 07:15:43;;;;;;;24.38;10.13;;;13.30;76.30;;;;;;5088510;28;20853;-68
2022/04/28 07:18:29;;;;;;;21.70;9.20;;;13.20;76.90;;;;;;5082135;28;20452;-68
2022/04/28 07:20:55;;;;;;;21.27;8.60;;;13.20;76.90;;;;;;5084850;28;20408;-67
2022/04/28 07:23:23;;;;;;;20.08;7.32;;;13.20;77.10;;;;;;5084746;28;20421;-67
2022/04/28 07:25:49;;;;;;;17.80;7.57;;;13.20;76.80;;;;;;5084486;28;20489;-69
2022/04/28 07:28:16;;;;;;;20.00;7.47;;;13.10;76.70;;;;;;5084479;28;20405;-68
2022/04/28 07:31:01;;;;;;;18.45;7.25;;;13.10;76.80;;;;;;5082204;28;20474;-68
2022/04/28 07:33:47;;;;;;;18.93;6.97;;;13.00;77.20;;;;;;5083744;28;21217;-68
2022/04/28 07:36:31;;;;;;;17.07;7.17;;;13.10;76.90;;;;;;5088086;28;20760;-67
2022/04/28 07:39:15;;;;;;;17.80;7.35;;;13.10;77.00;;;;;;5087267;28;20389;-67
2022/04/28 07:42:10;;;;;;;13.07;6.25;;;13.10;77.00;;;;;;5083023;28;20423;-66
2022/04/28 07:44:40;;;;;;;18.73;6.75;;;13.20;76.80;;;;;;5085566;28;20492;-67
2022/04/28 07:47:07;;;;;;;15.98;6.28;;;13.20;76.80;;;;;;5086439;28;20786;-67
2022/04/28 07:49:38;;;;;;;18.42;6.78;;;13.20;76.30;;;;;;5083955;28;20913;-66
2022/04/28 07:52:05;;;;;;;15.47;6.73;;;13.30;76.10;;;;;;5084024;28;20423;-67
2022/04/28 07:54:31;;;;;;;17.73;6.70;;;13.30;76.30;;;;;;5085200;28;20405;-67
2022/04/28 07:56:57;;;;;;;17.15;7.10;;;13.40;76.00;;;;;;5084519;28;20898;-66
2022/04/28 07:59:25;;;;;;;15.20;6.80;;;13.50;76.80;;;;;;5069970;28;20397;-67
2022/04/28 08:01:56;;;;;;;17.33;6.40;;;13.50;76.30;;;;;;5084573;28;21330;-67
2022/04/28 08:04:22;;;;;;;;;;;13.70;75.40;;;;;;5084529;28;20404;-67
2022/04/28 08:06:56;;;;;;;;;;;13.80;74.40;;;;;;5085585;28;20034;-67
2022/04/28 08:09:21;;;;;;;;;;;13.80;73.50;;;;;;5085076;28;19999;-68
2022/04/28 08:11:47;;;;;;;;;;;13.90;72.80;;;;;;5085285;28;19974;-68
2022/04/28 08:14:13;;;;;;;;;;;14.00;72.60;;;;;;5086089;28;19973;-67
2022/04/28 08:16:39;;;;;;;;;;;14.00;71.80;;;;;;5102310;28;19939;-67
2022/04/28 08:19:05;;;;;;;;;;;14.10;71.30;;;;;;5070618;28;19950;-68
2022/04/28 08:21:40;;;;;;;;;;;14.20;70.80;;;;;;5083207;28;20602;-66
2022/04/28 08:24:06;;;;;;;;;;;14.20;70.40;;;;;;5086883;28;20041;-66
2022/04/28 08:26:32;;;;;;;;;;;14.20;70.40;;;;;;5067197;28;20006;-66
2022/04/28 08:28:58;;;;;;;;;;;14.30;70.50;;;;;;5086312;28;20456;-67
2022/04/28 08:31:26;;;;;;;;;;;14.30;71.10;;;;;;5086038;28;19927;-66
2022/04/28 08:33:53;;;;;;;;;;;13.90;72.60;;;;;;5074817;28;19915;-67
2022/04/28 08:36:22;;;;;;;;;;;13.60;73.50;;;;;;5085338;28;19915;-66
2022/04/28 08:38:55;;;;;;;;;;;13.30;74.00;;;;;;5086583;28;19923;-67
2022/04/28 08:41:34;;;;;;;;;;;13.10;74.60;;;;;;5084596;28;19908;-67
2022/04/28 08:44:21;;;;;;;;;;;12.90;74.80;;;;;;5086614;28;19960;-65
2022/04/28 08:46:54;;;;;;;;;;;12.80;75.10;;;;;;5086351;28;20000;-67
2022/04/28 08:49:28;;;;;;;;;;;12.70;75.10;;;;;;5087402;28;19968;-68
2022/04/28 08:52:13;;;;;;;;;;;12.60;75.10;;;;;;5090362;28;19923;-67
2022/04/28 08:54:40;;;;;;;;;;;12.60;75.20;;;;;;5073099;28;19987;-67
2022/04/28 08:57:06;;;;;;;;;;;12.70;75.30;;;;;;5087391;28;20301;-69
2022/04/28 08:59:32;;;;;;;;;;;12.80;75.50;;;;;;5091208;28;19912;-67
2022/04/28 09:01:57;;;;;;;;;;;13.20;75.70;;;;;;5073095;28;19919;-67
2022/04/28 09:04:42;;;;;;;;;;;14.60;68.00;;;;;;5089092;28;20422;-69
2022/04/28 09:07:40;;;;;;;;;;;15.90;63.10;;;;;;5105348;28;19966;-68
2022/04/28 09:10:26;;;;;;;;;;;17.10;56.40;;;;;;5088358;28;20221;-68
2022/04/28 09:16:18;;;;;;;10.30;4.10;;;18.80;51.50;;;;;;5088436;28;20424;-68
2022/04/28 09:18:46;;;;;;;;;;;20.50;45.90;;;;;;5088483;28;20441;-68
2022/04/28 09:21:11;;;;;;;;;;;21.60;42.40;;;;;;5085624;28;19955;-68
2022/04/28 09:23:38;;;;;;;;;;;21.90;41.00;;;;;;5090392;28;20424;-69
2022/04/28 09:26:03;;;;;;;;;;;21.80;41.20;;;;;;5089526;28;20353;-69
2022/04/28 09:28:30;;;;;;;6.88;3.05;;;21.90;41.40;;;;;;5090185;28;20382;-68
2022/04/28 09:30:56;;;;;;;9.20;3.22;;;21.50;44.40;;;;;;5086175;28;20425;-69
2022/04/28 09:33:48;;;;;;;8.32;2.92;;;23.30;39.40;;;;;;5088211;28;20413;-69
2022/04/28 09:36:17;;;;;;;10.02;3.22;;;25.10;35.90;;;;;;5085963;28;20406;-69
2022/04/28 09:42:29;;;;;;;8.38;3.22;;;27.10;31.20;;;;;;5086466;28;20466;-69
2022/04/28 09:44:56;;;;;;;9.13;2.90;;;27.90;30.00;;;;;;5084399;28;20441;-68
2022/04/28 09:47:24;;;;;;;8.90;3.10;;;28.20;30.00;;;;;;5088804;28;21111;-68
2022/04/28 09:49:58;;;;;;;9.30;3.25;;;28.50;29.80;;;;;;5086568;28;20516;-69
2022/04/28 09:52:26;;;;;;;10.00;3.17;;;29.30;28.60;;;;;;5088799;28;20401;-69
2022/04/28 09:55:29;;;;;;;7.45;2.60;;;30.10;27.50;;;;;;5079660;28;20395;-69
2022/04/28 09:58:21;;;;;;;;;;;31.10;26.20;;;;;;5084654;28;20417;-66
2022/04/28 10:00:47;;;;;;;;;;;32.20;25.00;;;;;;5087582;28;20273;-67
2022/04/28 10:03:14;;;;;;;;;;;33.00;24.20;;;;;;5104763;28;19998;-67
2022/04/28 10:05:41;;;;;;;;;;;33.80;23.70;;;;;;5086984;28;19919;-66
2022/04/28 10:08:42;;;;;;;;;;;34.50;23.20;;;;;;5047386;28;19908;-64
2022/04/28 10:11:09;;;;;;;;;;;34.60;22.60;;;;;;5076125;28;19943;-64
2022/04/28 10:13:34;;;;;;;;;;;34.30;22.90;;;;;;5087573;28;19912;-66
2022/04/28 10:16:04;;;;;;;;;;;33.90;23.00;;;;;;5088805;28;19912;-66
2022/04/28 10:18:35;;;;;;;;;;;33.80;23.20;;;;;;5089362;28;19958;-67
2022/04/28 10:21:03;;;;;;;;;;;33.80;23.60;;;;;;5084132;28;19912;-66
2022/04/28 10:32:24;;;;;;;;;;;34.90;21.70;;;;;;5103982;28;20041;-65
2022/04/28 10:35:06;;;;;;;;;;;34.50;22.50;;;;;;5089066;28;20357;-68
2022/04/28 10:37:33;;;;;;;;;;;33.90;22.40;;;;;;5088025;28;20311;-68
2022/04/28 10:39:59;;;;;;;;;;;33.80;23.00;;;;;;5087787;28;19907;-63
2022/04/28 10:42:27;;;;;;;;;;;34.40;22.70;;;;;;5087816;28;20361;-65
2022/04/28 10:45:04;;;;;;;;;;;35.00;22.00;;;;;;5088689;28;19912;-65
2022/04/28 10:47:34;;;;;;;;;;;35.40;21.50;;;;;;5088689;28;19908;-65
2022/04/28 10:49:59;;;;;;;;;;;34.90;21.60;;;;;;5086967;28;19938;-65
2022/04/28 10:52:25;;;;;;;;;;;34.30;22.50;;;;;;5088815;28;19915;-66
2022/04/28 10:54:52;;;;;;;;;;;33.90;22.50;;;;;;5088716;28;19915;-64
2022/04/28 10:57:19;;;;;;;;;;;33.70;23.10;;;;;;5089877;28;20046;-64
2022/04/28 10:59:49;;;;;;;;;;;34.00;22.70;;;;;;5085273;28;20006;-66
2022/04/28 11:02:18;;;;;;;;;;;34.40;22.20;;;;;;5087627;28;20053;-66
2022/04/28 11:04:48;;;;;;;;;;;34.70;22.40;;;;;;5087641;28;19916;-65
2022/04/28 11:07:20;;;;;;;;;;;35.00;22.00;;;;;;5085199;28;19908;-64
2022/04/28 11:09:56;;;;;;;;;;;35.20;21.40;;;;;;5086272;28;19908;-64
2022/04/28 11:12:25;;;;;;;;;;;35.40;22.00;;;;;;5086766;28;19912;-65
2022/04/28 11:15:00;;;;;;;;;;;35.40;22.00;;;;;;5084225;28;20364;-65
2022/04/28 11:17:28;;;;;;;;;;;35.50;21.80;;;;;;5089070;28;19915;-64
2022/04/28 11:19:54;;;;;;;;;;;35.50;21.60;;;;;;5085148;28;19916;-69
2022/04/28 11:22:20;;;;;;;;;;;35.40;21.90;;;;;;5089318;28;19908;-66
2022/04/28 11:24:46;;;;;;;;;;;34.90;22.00;;;;;;5088089;28;20045;-66
2022/04/28 11:27:32;;;;;;;8.67;2.90;;;34.40;22.60;;;;;;5086919;28;20428;-66
2022/04/28 11:30:09;;;;;;;6.45;2.80;;;33.60;23.00;;;;;;5084346;28;20423;-66
2022/04/28 11:32:35;;;;;;;7.97;2.95;;;33.10;23.80;;;;;;5084981;28;20393;-67
2022/04/28 11:35:03;;;;;;;6.03;2.40;;;32.70;24.20;;;;;;5065014;28;20427;-67
2022/04/28 11:37:29;;;;;;;7.88;3.28;;;32.20;24.80;;;;;;5067858;28;20411;-67
2022/04/28 11:39:56;;;;;;;;;;;31.50;24.40;;;;;;5066976;28;20063;-65
2022/04/28 11:42:24;;;;;;;;;;;30.30;25.70;;;;;;5067547;28;19986;-66
2022/04/28 11:44:54;;;;;;;;;;;29.60;26.60;;;;;;5065065;28;19912;-67
2022/04/28 11:47:24;;;;;;;7.72;2.83;;;29.30;27.10;;;;;;5067848;28;20270;-65
2022/04/28 11:50:01;;;;;;;;;;;29.10;27.60;;;;;;5065130;28;20327;-65
2022/04/28 11:52:29;;;;;;;6.97;2.97;;;28.90;28.00;;;;;;5067294;28;20896;-67
2022/04/28 11:55:08;;;;;;;9.25;3.10;;;28.70;28.10;;;;;;5062169;28;20762;-66
2022/04/28 11:57:39;;;;;;;8.38;3.53;;;28.90;28.00;;;;;;5062408;28;20896;-67
2022/04/28 12:00:11;;;;;;;9.90;3.28;;;28.80;27.50;;;;;;5056431;28;20473;-67
2022/04/28 12:02:38;;;;;;;10.43;3.47;;;28.60;27.70;;;;;;5066951;28;20431;-65
2022/04/28 12:05:16;;;;;;;8.48;3.33;;;28.40;28.00;;;;;;5060964;28;20449;-67
2022/04/28 12:07:52;;;;;;;8.15;3.22;;;28.20;28.30;;;;;;5064120;28;20423;-66
2022/04/28 12:16:13;;;;;;;8.63;3.53;;;27.80;28.70;;;;;;5063504;28;20426;-66
2022/04/28 12:21:32;;;;;;;11.20;3.35;;;27.80;29.30;;;;;;5066818;28;20217;-67
2022/04/28 12:23:58;;;;;;;10.07;3.20;;;27.50;29.90;;;;;;5068303;28;20653;-65
2022/04/28 12:26:24;;;;;;;;;;;27.10;30.40;;;;;;5068533;28;20086;-65
2022/04/28 12:28:50;;;;;;;;;;;26.60;30.70;;;;;;5071989;28;19920;-67
2022/04/28 12:31:25;;;;;;;;;;;26.20;31.20;;;;;;5070157;28;20383;-67
2022/04/28 12:33:51;;;;;;;;;;;26.00;31.80;;;;;;5071550;28;20301;-65
2022/04/28 12:36:17;;;;;;;;;;;25.90;32.00;;;;;;5068551;28;19908;-66
2022/04/28 12:38:53;;;;;;;;;;;25.90;32.00;;;;;;5067585;28;20357;-65
2022/04/28 12:41:23;;;;;;;11.27;3.00;;;25.80;32.10;;;;;;5066060;28;20184;-64
2022/04/28 12:43:51;;;;;;;8.98;2.90;;;25.70;32.20;;;;;;5067623;28;20403;-65
2022/04/28 12:46:22;;;;;;;9.43;3.30;;;26.70;31.20;;;;;;5069522;28;20465;-66
2022/04/28 12:48:55;;;;;;;8.77;2.90;;;27.20;30.20;;;;;;5067149;28;20958;-66
2022/04/28 12:51:23;;;;;;;9.50;3.25;;;27.40;30.30;;;;;;5061738;28;20438;-66
2022/04/28 12:53:54;;;;;;;9.88;2.97;;;27.20;30.70;;;;;;5067324;28;20432;-66
2022/04/28 12:56:28;;;;;;;10.20;3.27;;;27.20;30.60;;;;;;5067780;28;20442;-64
2022/04/28 12:58:55;;;;;;;;;;;27.10;30.40;;;;;;5053529;28;20028;-67
2022/04/28 13:01:20;;;;;;;;;;;26.60;30.90;;;;;;5069603;28;19912;-66
2022/04/28 13:03:57;;;;;;;5.63;3.10;;;26.60;30.90;;;;;;5068234;28;20196;-68
2022/04/28 13:06:28;;;;;;;6.63;3.00;;;26.20;31.10;;;;;;5069651;28;20236;-67
2022/04/28 13:08:57;;;;;;;6.55;2.75;;;26.00;31.50;;;;;;5071423;28;20214;-66
2022/04/28 13:11:25;;;;;;;8.63;2.97;;;25.80;32.00;;;;;;5066998;28;20214;-65
2022/04/28 13:13:52;;;;;;;9.65;3.20;;;25.60;32.50;;;;;;5069969;28;20286;-66
2022/04/28 13:16:18;;;;;;;7.22;2.80;;;25.40;32.80;;;;;;5068143;28;20659;-66
2022/04/28 13:18:44;;;;;;;11.02;3.53;;;25.20;33.00;;;;;;5069329;28;20201;-65
2022/04/28 13:21:12;;;;;;;8.55;3.28;;;24.90;33.30;;;;;;5068960;28;20187;-68
2022/04/28 13:23:39;;;;;;;7.50;2.70;;;24.80;33.80;;;;;;5070324;28;20271;-64
2022/04/28 13:26:05;;;;;;;9.48;3.60;;;24.80;34.00;;;;;;5068932;28;20195;-67
2022/04/28 13:28:32;;;;;;;8.02;2.83;;;24.70;33.90;;;;;;5065865;28;22003;-67
2022/04/28 13:30:58;;;;;;;7.45;3.40;;;24.60;34.10;;;;;;5067023;28;20952;-65
2022/04/28 13:33:23;;;;;;;7.93;3.22;;;25.00;34.50;;;;;;5066043;28;20494;-66
2022/04/28 13:35:49;;;;;;;9.18;3.20;;;25.20;34.10;;;;;;5067038;28;20506;-66
2022/04/28 13:38:16;;;;;;;9.57;3.40;;;25.10;34.20;;;;;;5069607;28;20748;-65
2022/04/28 13:40:42;;;;;;;8.68;3.05;;;24.90;34.40;;;;;;5065858;28;20483;-65
2022/04/28 13:43:08;;;;;;;9.35;3.55;;;24.70;34.40;;;;;;5068406;28;20403;-65
2022/04/28 13:45:33;;;;;;;9.20;3.40;;;24.70;34.50;;;;;;5063585;28;20419;-65
2022/04/28 13:47:59;;;;;;;6.57;3.20;;;24.80;35.30;;;;;;5065659;28;20435;-66
2022/04/28 13:50:25;;;;;;;9.98;3.28;;;24.80;34.30;;;;;;5069114;28;20392;-64
2022/04/28 13:52:51;;;;;;;7.65;3.05;;;24.90;33.90;;;;;;5066905;28;20416;-65
2022/04/28 13:55:18;;;;;;;8.90;3.13;;;25.10;34.70;;;;;;5065539;28;21033;-66
2022/04/28 13:57:44;;;;;;;6.60;3.10;;;25.20;34.30;;;;;;5065627;28;20494;-66
2022/04/28 14:00:13;;;;;;;7.80;3.42;;;25.20;33.90;;;;;;5063967;28;20888;-65